Time;durP1;ratioP1;P1;durP2;ratioP2;P2;SDS_P1;SDS_P2;PMS_P1;PMS_P2;Temp;Humidity;BMP_temperature;BMP_pressure;BME280_temperature;BME280_humidity;BME280_pressure;Samples;Min_cycle;Max_cycle;Signal;HPM_P1;HPM_P2
2021/05/30 00:01:24;;;;;;;22.15;14.35;;;10.70;83.60;;;;;;5039072;28;20481;-57
2021/05/30 00:03:50;;;;;;;24.23;14.48;;;10.50;84.30;;;;;;5021980;28;20141;-58
2021/05/30 00:06:16;;;;;;;21.67;13.55;;;10.50;84.50;;;;;;5060007;28;20119;-58
2021/05/30 00:08:42;;;;;;;22.40;14.77;;;10.60;84.40;;;;;;5062844;28;20102;-58
2021/05/30 00:11:07;;;;;;;28.83;14.07;;;10.60;84.60;;;;;;5068576;28;20044;-58
2021/05/30 00:13:34;;;;;;;26.38;13.80;;;10.60;85.10;;;;;;5069180;28;20462;-58
2021/05/30 00:15:59;;;;;;;21.50;13.30;;;10.60;84.50;;;;;;5069761;28;20043;-58
2021/05/30 00:18:25;;;;;;;24.88;15.15;;;10.70;83.30;;;;;;5070070;28;20040;-58
2021/05/30 00:20:51;;;;;;;24.73;14.27;;;10.70;82.80;;;;;;5056322;28;20067;-58
2021/05/30 00:23:17;;;;;;;24.00;14.07;;;10.60;83.00;;;;;;5051901;28;20029;-58
2021/05/30 00:25:43;;;;;;;25.15;13.82;;;10.60;83.60;;;;;;5053174;28;20041;-58
2021/05/30 00:28:09;;;;;;;23.83;15.40;;;10.50;84.10;;;;;;5050245;28;20068;-59
2021/05/30 00:30:35;;;;;;;25.63;15.70;;;10.70;83.20;;;;;;5065366;28;20032;-58
2021/05/30 00:33:00;;;;;;;27.35;15.90;;;10.60;83.20;;;;;;5066074;28;20416;-58
2021/05/30 00:35:26;;;;;;;25.67;14.90;;;10.60;82.90;;;;;;5055976;28;20041;-58
2021/05/30 00:37:52;;;;;;;24.45;13.38;;;10.60;83.50;;;;;;5058496;28;20040;-57
2021/05/30 00:40:18;;;;;;;24.92;15.70;;;10.80;83.00;;;;;;5035447;28;20049;-58
2021/05/30 00:42:44;;;;;;;23.58;16.30;;;10.80;82.50;;;;;;5071681;28;20054;-57
2021/05/30 00:45:13;;;;;;;26.27;15.32;;;10.60;83.40;;;;;;5057813;28;20079;-57
2021/05/30 00:47:40;;;;;;;26.00;14.77;;;10.50;83.70;;;;;;5063744;28;20051;-57
2021/05/30 00:50:07;;;;;;;28.17;16.17;;;10.60;83.90;;;;;;5054107;28;20040;-58
2021/05/30 00:52:33;;;;;;;29.92;16.20;;;10.50;84.10;;;;;;5054085;28;20052;-58
2021/05/30 00:55:02;;;;;;;22.13;13.82;;;10.50;84.10;;;;;;5061752;28;20107;-58
2021/05/30 00:57:28;;;;;;;24.15;14.38;;;10.50;84.20;;;;;;5047487;28;20408;-58
2021/05/30 00:59:54;;;;;;;25.13;14.13;;;10.50;84.10;;;;;;5063185;28;20535;-58
2021/05/30 01:02:20;;;;;;;20.55;12.32;;;10.60;83.60;;;;;;5039493;28;20170;-57
2021/05/30 01:04:49;;;;;;;21.02;13.10;;;10.60;83.20;;;;;;5059264;28;20088;-57
2021/05/30 01:07:17;;;;;;;22.75;13.70;;;10.60;84.00;;;;;;5065514;28;20492;-57
2021/05/30 01:09:43;;;;;;;24.83;13.35;;;10.50;83.80;;;;;;5061936;28;20497;-55
2021/05/30 01:12:09;;;;;;;29.40;15.02;;;10.40;84.30;;;;;;5062096;28;20048;-57
2021/05/30 01:14:35;;;;;;;20.27;13.80;;;10.40;84.80;;;;;;5070483;28;20040;-55
2021/05/30 01:17:04;;;;;;;28.23;14.43;;;10.30;84.90;;;;;;5053099;28;20127;-56
2021/05/30 01:19:33;;;;;;;23.83;13.63;;;10.40;84.80;;;;;;5040890;28;20041;-54
2021/05/30 01:22:00;;;;;;;20.05;13.65;;;10.30;85.00;;;;;;5038284;28;20083;-57
2021/05/30 01:24:26;;;;;;;23.70;15.13;;;10.30;85.40;;;;;;5013229;28;20072;-55
2021/05/30 01:26:53;;;;;;;23.63;14.57;;;10.20;85.70;;;;;;5061188;28;20087;-57
2021/05/30 01:29:18;;;;;;;24.98;14.60;;;10.10;85.90;;;;;;5047098;28;20052;-52
2021/05/30 01:31:44;;;;;;;22.20;14.45;;;10.10;86.30;;;;;;5052124;28;20045;-55
2021/05/30 01:34:10;;;;;;;22.73;14.60;;;10.10;86.50;;;;;;5062361;28;20064;-55
2021/05/30 01:36:36;;;;;;;23.77;14.63;;;10.00;87.30;;;;;;5010209;28;20041;-55
2021/05/30 01:39:02;;;;;;;23.38;14.35;;;10.00;87.10;;;;;;5064953;28;20041;-55
2021/05/30 01:41:28;;;;;;;20.80;13.88;;;9.90;86.80;;;;;;5057277;28;20543;-55
2021/05/30 01:43:54;;;;;;;19.42;12.52;;;9.90;87.10;;;;;;5062090;28;20045;-56
2021/05/30 01:46:20;;;;;;;21.00;13.07;;;9.90;87.00;;;;;;5035497;28;20042;-56
2021/05/30 01:48:45;;;;;;;24.33;13.00;;;9.90;87.00;;;;;;5061295;28;20072;-54
2021/05/30 01:51:11;;;;;;;23.25;12.57;;;9.80;87.30;;;;;;5062762;28;20052;-56
2021/05/30 01:53:46;;;;;;;20.63;12.32;;;9.70;87.80;;;;;;5054437;28;20451;-54
2021/05/30 01:58:42;;;;;;;21.33;13.15;;;9.70;87.60;;;;;;5056595;28;20109;-54
2021/05/30 02:01:12;;;;;;;21.77;12.77;;;9.60;87.80;;;;;;5058420;28;20544;-54
2021/05/30 02:03:39;;;;;;;22.98;12.98;;;9.60;88.20;;;;;;5061764;28;20457;-57
2021/05/30 02:06:05;;;;;;;26.75;13.35;;;9.60;88.00;;;;;;5053505;28;20500;-54
2021/05/30 02:08:31;;;;;;;23.42;13.25;;;9.60;88.50;;;;;;5063462;28;20040;-55
2021/05/30 02:10:58;;;;;;;25.00;13.15;;;9.50;88.60;;;;;;5056954;28;20036;-55
2021/05/30 02:13:25;;;;;;;26.63;12.88;;;9.50;88.60;;;;;;5051564;28;20041;-55
2021/05/30 02:15:52;;;;;;;21.00;12.73;;;9.50;88.80;;;;;;5054682;28;20041;-56
2021/05/30 02:18:17;;;;;;;25.13;13.38;;;9.40;89.10;;;;;;5064402;28;20090;-54
2021/05/30 02:20:43;;;;;;;24.55;13.10;;;9.40;89.10;;;;;;5050975;28;20041;-54
2021/05/30 02:23:11;;;;;;;21.40;12.68;;;9.40;89.00;;;;;;5061467;28;20036;-55
2021/05/30 02:25:37;;;;;;;24.52;12.48;;;9.30;89.30;;;;;;5061730;28;20136;-56
2021/05/30 02:28:03;;;;;;;27.80;13.98;;;9.30;89.30;;;;;;5052621;28;20044;-54
2021/05/30 02:30:29;;;;;;;21.15;13.18;;;9.20;89.70;;;;;;5065783;28;20127;-55
2021/05/30 02:32:55;;;;;;;22.23;13.90;;;9.20;89.40;;;;;;5053929;28;20554;-55
2021/05/30 02:35:21;;;;;;;25.20;13.23;;;9.10;89.80;;;;;;5036158;28;20101;-55
2021/05/30 02:37:46;;;;;;;22.90;13.15;;;9.20;89.80;;;;;;5060030;28;20131;-56
2021/05/30 02:40:13;;;;;;;24.33;14.38;;;9.10;89.60;;;;;;5059661;28;20129;-54
2021/05/30 02:42:38;;;;;;;27.33;13.82;;;9.00;89.80;;;;;;5051980;28;20527;-57
2021/05/30 02:45:05;;;;;;;20.63;13.68;;;8.80;90.10;;;;;;5051260;28;20225;-54
2021/05/30 02:47:31;;;;;;;26.08;14.55;;;8.80;90.20;;;;;;5051977;28;20072;-55
2021/05/30 02:49:57;;;;;;;21.80;14.02;;;8.80;90.30;;;;;;5050997;28;20051;-55
2021/05/30 02:52:23;;;;;;;22.60;14.30;;;8.70;90.30;;;;;;5064939;28;20036;-54
2021/05/30 02:54:50;;;;;;;22.42;14.15;;;8.70;90.30;;;;;;5058914;28;20098;-55
2021/05/30 02:57:15;;;;;;;27.67;14.43;;;8.60;90.30;;;;;;5043503;28;20802;-55
2021/05/30 02:59:41;;;;;;;26.10;13.73;;;8.60;90.40;;;;;;5052753;28;20041;-55
2021/05/30 03:02:07;;;;;;;22.10;14.10;;;8.50;90.40;;;;;;5061442;28;20068;-54
2021/05/30 03:04:32;;;;;;;21.90;13.27;;;8.40;90.50;;;;;;5061174;28;20033;-55
2021/05/30 03:07:00;;;;;;;25.00;14.48;;;8.40;90.50;;;;;;5042670;28;20394;-54
2021/05/30 03:09:25;;;;;;;25.77;15.38;;;8.40;90.60;;;;;;5059992;28;20091;-57
2021/05/30 03:11:51;;;;;;;24.58;15.48;;;8.50;90.80;;;;;;5056544;28;20033;-57
2021/05/30 03:14:17;;;;;;;23.33;15.02;;;8.40;90.70;;;;;;5050089;28;20037;-55
2021/05/30 03:16:43;;;;;;;26.80;15.50;;;8.40;90.70;;;;;;5052363;28;20493;-54
2021/05/30 03:19:08;;;;;;;23.70;15.88;;;8.40;90.80;;;;;;5073504;28;20045;-54
2021/05/30 03:21:34;;;;;;;24.58;15.90;;;8.40;90.80;;;;;;5067917;28;20086;-56
2021/05/30 03:24:00;;;;;;;24.35;14.82;;;8.40;90.80;;;;;;5047136;28;20045;-55
2021/05/30 03:26:26;;;;;;;24.00;13.80;;;8.40;90.90;;;;;;5067520;28;20079;-58
2021/05/30 03:28:52;;;;;;;27.55;15.63;;;8.40;90.90;;;;;;5055019;28;20068;-54
2021/05/30 03:31:18;;;;;;;28.92;15.43;;;8.40;91.00;;;;;;5056172;28;20080;-54
2021/05/30 03:33:44;;;;;;;28.10;15.30;;;8.50;91.10;;;;;;5049992;28;20041;-55
2021/05/30 03:36:12;;;;;;;26.65;14.68;;;8.50;91.00;;;;;;5061419;28;20033;-54
2021/05/30 03:38:39;;;;;;;28.65;15.02;;;8.50;91.10;;;;;;5064075;28;20028;-54
2021/05/30 03:41:10;;;;;;;26.83;15.55;;;8.50;90.90;;;;;;5037368;28;20378;-53
2021/05/30 03:43:35;;;;;;;26.98;15.55;;;8.60;91.00;;;;;;5055498;28;20059;-51
2021/05/30 03:46:02;;;;;;;30.13;16.13;;;8.60;90.90;;;;;;5072439;28;20037;-52
2021/05/30 03:48:28;;;;;;;23.13;14.73;;;8.60;90.90;;;;;;5058334;28;20286;-54
2021/05/30 03:50:54;;;;;;;28.20;15.18;;;8.60;90.80;;;;;;5053621;28;20127;-54
2021/05/30 03:53:21;;;;;;;24.65;15.30;;;8.60;90.80;;;;;;5047621;28;20048;-55
2021/05/30 03:55:49;;;;;;;30.13;15.82;;;8.60;90.90;;;;;;5056765;28;20103;-51
2021/05/30 03:58:15;;;;;;;26.30;15.32;;;8.70;90.70;;;;;;5054387;28;20045;-52
2021/05/30 04:00:42;;;;;;;28.30;15.30;;;8.70;90.60;;;;;;5059354;28;20044;-54
2021/05/30 04:03:09;;;;;;;25.10;14.57;;;8.60;90.80;;;;;;5054255;28;20043;-54
2021/05/30 04:05:34;;;;;;;28.48;15.25;;;8.70;90.90;;;;;;5014226;28;20045;-56
2021/05/30 04:08:00;;;;;;;28.88;15.75;;;8.70;90.90;;;;;;5055062;28;20584;-54
2021/05/30 04:10:26;;;;;;;25.58;14.52;;;8.60;91.00;;;;;;5063763;28;20110;-51
2021/05/30 04:12:52;;;;;;;30.55;15.38;;;8.70;90.80;;;;;;5060645;28;20045;-53
2021/05/30 04:15:20;;;;;;;31.77;16.42;;;8.80;90.90;;;;;;5025021;28;20041;-53
2021/05/30 04:17:49;;;;;;;25.05;15.38;;;8.70;90.90;;;;;;5053637;28;20455;-52
2021/05/30 04:20:17;;;;;;;27.73;15.98;;;8.60;90.90;;;;;;5057645;28;20033;-53
2021/05/30 04:22:44;;;;;;;32.63;16.17;;;8.70;91.00;;;;;;5069304;28;20139;-55
2021/05/30 04:25:12;;;;;;;26.75;15.93;;;8.70;91.10;;;;;;5059610;28;20044;-51
2021/05/30 04:27:37;;;;;;;30.80;16.25;;;8.70;91.00;;;;;;5074165;28;20068;-52
2021/05/30 04:30:08;;;;;;;30.48;15.38;;;8.80;91.00;;;;;;5057122;28;20071;-55
2021/05/30 04:32:34;;;;;;;28.80;15.48;;;8.80;90.90;;;;;;5054676;28;20067;-53
2021/05/30 04:35:00;;;;;;;29.90;16.38;;;8.80;90.90;;;;;;5057165;28;20037;-55
2021/05/30 04:37:26;;;;;;;30.17;15.45;;;8.80;90.80;;;;;;5063080;28;20043;-54
2021/05/30 04:39:51;;;;;;;25.40;15.13;;;8.90;90.90;;;;;;5055182;28;20629;-54
2021/05/30 04:42:17;;;;;;;22.98;14.40;;;8.90;90.70;;;;;;5056024;28;20037;-56
2021/05/30 04:44:44;;;;;;;30.73;15.18;;;8.90;90.90;;;;;;5057754;28;20036;-52
2021/05/30 04:47:10;;;;;;;27.05;15.43;;;8.90;91.00;;;;;;5050032;28;20487;-51
2021/05/30 04:49:36;;;;;;;27.00;15.07;;;9.00;90.90;;;;;;5054832;28;20114;-53
2021/05/30 04:52:03;;;;;;;25.73;14.98;;;9.00;90.80;;;;;;5014821;28;20136;-51
2021/05/30 04:54:29;;;;;;;30.13;15.38;;;9.10;90.90;;;;;;5054180;28;20033;-52
2021/05/30 04:56:55;;;;;;;26.98;14.70;;;9.10;91.00;;;;;;5058863;28;20094;-51
2021/05/30 04:59:21;;;;;;;23.08;13.93;;;9.20;90.50;;;;;;5053725;28;20036;-51
2021/05/30 05:01:46;;;;;;;27.02;14.70;;;9.30;90.70;;;;;;5058295;28;20135;-53
2021/05/30 05:04:12;;;;;;;30.95;14.45;;;9.50;90.30;;;;;;5066414;28;20469;-55
2021/05/30 05:06:38;;;;;;;22.88;13.65;;;9.70;90.20;;;;;;5054593;28;20080;-55
2021/05/30 05:09:04;;;;;;;27.85;14.02;;;9.90;90.00;;;;;;5055093;28;20094;-51
2021/05/30 05:11:29;;;;;;;26.52;13.50;;;10.10;89.00;;;;;;5060401;28;20094;-53
2021/05/30 05:13:55;;;;;;;23.52;13.02;;;10.30;88.50;;;;;;5060754;28;20459;-53
2021/05/30 05:16:21;;;;;;;30.40;13.52;;;10.60;87.60;;;;;;5070233;28;20039;-53
2021/05/30 05:18:47;;;;;;;25.92;13.73;;;10.80;85.30;;;;;;5006125;28;20112;-52
2021/05/30 05:21:13;;;;;;;21.10;13.02;;;11.00;84.90;;;;;;5060919;28;20409;-54
2021/05/30 05:23:38;;;;;;;21.08;12.43;;;11.10;84.70;;;;;;5054841;28;20049;-56
2021/05/30 05:26:05;;;;;;;25.00;11.80;;;11.20;84.40;;;;;;5054091;28;20060;-52
2021/05/30 05:28:32;;;;;;;22.15;12.00;;;11.40;83.40;;;;;;5047451;28;20037;-56
2021/05/30 05:30:59;;;;;;;23.30;11.68;;;11.50;83.00;;;;;;5070528;28;20143;-52
2021/05/30 05:33:25;;;;;;;21.45;11.68;;;11.60;82.70;;;;;;5047123;28;20523;-54
2021/05/30 05:35:51;;;;;;;25.08;12.98;;;11.70;82.50;;;;;;5050781;28;20063;-53
2021/05/30 05:38:17;;;;;;;19.63;11.93;;;11.80;82.00;;;;;;5053560;28;20040;-56
2021/05/30 05:40:43;;;;;;;25.60;11.88;;;11.90;82.50;;;;;;5056210;28;20044;-54
2021/05/30 05:43:09;;;;;;;22.83;11.45;;;12.00;81.50;;;;;;5060217;28;20063;-53
2021/05/30 05:45:36;;;;;;;20.63;12.18;;;12.00;81.10;;;;;;5063856;28;20037;-54
2021/05/30 05:48:08;;;;;;;19.95;11.07;;;12.00;81.00;;;;;;5054134;28;20063;-54
2021/05/30 05:50:34;;;;;;;22.83;12.50;;;12.00;81.70;;;;;;5050480;28;20043;-50
2021/05/30 05:53:00;;;;;;;26.50;12.55;;;12.20;81.70;;;;;;5057134;28;20044;-54
2021/05/30 05:55:26;;;;;;;28.50;12.52;;;12.70;79.30;;;;;;5053630;28;20160;-51
2021/05/30 05:57:53;;;;;;;25.88;13.13;;;13.10;77.80;;;;;;5061440;28;20051;-52
2021/05/30 06:00:21;;;;;;;28.85;12.45;;;13.00;77.70;;;;;;5021135;28;20045;-51
2021/05/30 06:02:50;;;;;;;24.25;13.27;;;12.80;79.10;;;;;;5054810;28;20048;-56
2021/05/30 06:05:18;;;;;;;19.65;11.57;;;12.60;79.00;;;;;;5040073;28;20474;-52
2021/05/30 06:07:44;;;;;;;25.98;13.80;;;12.40;79.70;;;;;;5055495;28;20052;-55
2021/05/30 06:10:12;;;;;;;25.05;12.05;;;12.30;79.30;;;;;;5051778;28;20037;-54
2021/05/30 06:12:37;;;;;;;24.08;12.63;;;12.20;81.30;;;;;;5058256;28;20482;-54
2021/05/30 06:15:05;;;;;;;24.35;12.57;;;12.20;81.70;;;;;;5056115;28;20093;-57
2021/05/30 06:17:31;;;;;;;24.63;12.20;;;12.10;82.10;;;;;;5054528;28;20258;-54
2021/05/30 06:19:57;;;;;;;22.80;12.63;;;12.00;81.80;;;;;;5053853;28;20044;-55
2021/05/30 06:22:22;;;;;;;22.63;11.40;;;12.10;81.30;;;;;;5054579;28;20098;-53
2021/05/30 06:24:48;;;;;;;21.80;12.18;;;12.20;80.40;;;;;;5052967;28;20073;-56
2021/05/30 06:27:14;;;;;;;27.25;12.63;;;12.00;81.00;;;;;;5052701;28;20029;-56
2021/05/30 06:29:40;;;;;;;25.55;12.57;;;11.90;81.50;;;;;;5053076;28;20083;-55
2021/05/30 06:32:10;;;;;;;25.00;12.95;;;11.90;82.90;;;;;;5068440;28;20049;-55
2021/05/30 06:34:36;;;;;;;24.15;12.50;;;11.90;82.40;;;;;;5045035;28;20037;-56
2021/05/30 06:37:01;;;;;;;24.40;12.35;;;12.00;82.70;;;;;;5054854;28;20499;-55
2021/05/30 06:39:28;;;;;;;21.00;11.93;;;12.00;82.40;;;;;;5054760;28;20055;-52
2021/05/30 06:41:54;;;;;;;23.70;11.68;;;12.00;82.70;;;;;;5051963;28;20045;-54
2021/05/30 06:44:20;;;;;;;18.60;10.77;;;12.10;82.30;;;;;;5064323;28;20484;-55
2021/05/30 06:46:46;;;;;;;25.50;12.43;;;12.10;80.60;;;;;;5054252;28;20036;-55
2021/05/30 06:49:12;;;;;;;26.02;13.82;;;12.10;81.20;;;;;;5057034;28;20124;-56
2021/05/30 06:51:38;;;;;;;22.02;12.95;;;12.10;81.10;;;;;;5033018;28;20120;-54
2021/05/30 06:54:05;;;;;;;23.52;12.50;;;12.10;81.60;;;;;;5038337;28;20041;-55
2021/05/30 06:56:31;;;;;;;22.20;12.82;;;12.00;82.60;;;;;;5040726;28;20055;-56
2021/05/30 06:58:57;;;;;;;24.40;12.23;;;12.10;82.50;;;;;;5053655;28;20037;-54
2021/05/30 07:01:23;;;;;;;24.90;12.57;;;12.20;81.70;;;;;;5055087;28;20478;-54
2021/05/30 07:03:50;;;;;;;20.48;11.73;;;12.20;82.50;;;;;;5054661;28;20041;-56
2021/05/30 07:06:18;;;;;;;21.17;12.35;;;12.40;80.70;;;;;;5047975;28;20037;-57
2021/05/30 07:08:58;;;;;;;24.75;13.20;;;12.40;81.30;;;;;;5058304;28;20045;-57
2021/05/30 07:11:25;;;;;;;22.30;12.63;;;12.50;82.00;;;;;;5058396;28;20044;-56
2021/05/30 07:13:50;;;;;;;21.65;12.77;;;12.70;79.60;;;;;;5061393;28;20048;-54
2021/05/30 07:16:16;;;;;;;23.30;12.88;;;12.80;80.90;;;;;;5051218;28;20053;-58
2021/05/30 07:18:42;;;;;;;23.88;12.55;;;12.90;79.30;;;;;;5058662;28;20043;-57
2021/05/30 07:21:07;;;;;;;24.00;12.93;;;12.90;80.10;;;;;;5051669;28;20198;-57
2021/05/30 07:23:35;;;;;;;24.10;12.20;;;13.10;79.80;;;;;;5062854;28;20113;-57
2021/05/30 07:26:01;;;;;;;20.83;11.80;;;13.20;79.20;;;;;;5056909;28;20068;-58
2021/05/30 07:28:27;;;;;;;26.13;12.73;;;13.30;79.20;;;;;;5053148;28;20041;-58
2021/05/30 07:30:53;;;;;;;17.50;10.95;;;13.50;75.80;;;;;;5064703;28;20048;-58
2021/05/30 07:33:18;;;;;;;16.08;10.82;;;13.40;77.60;;;;;;5054641;28;20504;-57
2021/05/30 07:35:44;;;;;;;21.98;11.65;;;13.40;78.10;;;;;;5060014;28;20508;-57
2021/05/30 07:38:10;;;;;;;21.88;11.48;;;13.60;79.70;;;;;;5059438;28;20079;-57
2021/05/30 07:40:36;;;;;;;20.83;11.60;;;13.90;77.80;;;;;;5043000;28;20095;-57
2021/05/30 07:43:03;;;;;;;18.83;10.65;;;14.00;77.70;;;;;;5063784;28;20043;-57
2021/05/30 07:45:33;;;;;;;22.05;10.75;;;14.30;78.30;;;;;;5065508;28;20036;-58
2021/05/30 07:47:59;;;;;;;18.85;11.02;;;14.30;75.40;;;;;;5056427;28;20045;-58
2021/05/30 07:50:25;;;;;;;23.30;12.30;;;14.40;74.00;;;;;;5055104;28;20048;-58
2021/05/30 07:52:51;;;;;;;19.60;11.43;;;14.40;74.30;;;;;;5054089;28;20473;-58
2021/05/30 07:55:18;;;;;;;20.45;11.55;;;14.40;74.50;;;;;;5055843;28;20096;-56
2021/05/30 07:57:47;;;;;;;17.30;10.73;;;14.50;74.00;;;;;;5050064;28;20061;-57
2021/05/30 08:00:16;;;;;;;19.77;11.30;;;14.50;75.50;;;;;;5060529;28;20048;-57
2021/05/30 08:02:43;;;;;;;18.13;11.80;;;14.70;75.10;;;;;;5057124;28;20131;-55
2021/05/30 08:05:10;;;;;;;21.00;11.77;;;14.90;75.50;;;;;;5056653;28;20052;-57
2021/05/30 08:07:37;;;;;;;19.63;10.88;;;15.00;73.50;;;;;;5057373;28;20037;-54
2021/05/30 08:10:05;;;;;;;15.35;10.77;;;15.10;73.00;;;;;;5058839;28;20108;-55
2021/05/30 08:12:31;;;;;;;20.63;11.40;;;15.20;73.00;;;;;;5067340;28;20056;-57
2021/05/30 08:14:57;;;;;;;16.55;11.52;;;15.30;72.60;;;;;;5055600;28;20048;-57
2021/05/30 08:17:23;;;;;;;15.13;10.48;;;15.40;72.70;;;;;;5073163;28;20040;-54
2021/05/30 08:19:50;;;;;;;18.98;10.95;;;15.40;72.00;;;;;;5044607;28;20052;-56
2021/05/30 08:22:17;;;;;;;19.00;11.75;;;15.50;72.20;;;;;;5059012;28;20045;-54
2021/05/30 08:24:44;;;;;;;18.23;11.30;;;15.60;73.20;;;;;;5047350;28;20087;-55
2021/05/30 08:27:10;;;;;;;19.52;11.15;;;15.70;73.30;;;;;;5036209;28;20045;-56
2021/05/30 08:29:36;;;;;;;17.63;11.27;;;15.80;71.00;;;;;;5055283;28;20041;-57
2021/05/30 08:32:03;;;;;;;18.63;11.93;;;15.70;70.80;;;;;;5055128;28;20045;-55
2021/05/30 08:34:29;;;;;;;20.15;11.50;;;15.80;71.30;;;;;;5052620;28;20037;-57
2021/05/30 08:36:55;;;;;;;21.63;11.30;;;15.90;71.90;;;;;;5054407;28;20125;-55
2021/05/30 08:39:22;;;;;;;18.17;11.18;;;16.00;71.50;;;;;;5054510;28;20123;-56
2021/05/30 08:41:48;;;;;;;16.65;10.75;;;16.00;71.80;;;;;;5043245;28;20118;-55
2021/05/30 08:44:14;;;;;;;15.77;11.10;;;16.10;70.10;;;;;;5056312;28;20080;-58
2021/05/30 08:46:40;;;;;;;16.50;11.23;;;16.20;69.70;;;;;;5053910;28;20045;-56
2021/05/30 08:49:07;;;;;;;20.05;11.00;;;16.30;70.10;;;;;;5052910;28;20104;-55
2021/05/30 08:51:38;;;;;;;19.88;11.32;;;16.40;70.60;;;;;;5062280;28;20072;-55
2021/05/30 08:54:09;;;;;;;18.67;11.05;;;16.50;70.30;;;;;;5054229;28;20424;-56
2021/05/30 08:56:36;;;;;;;19.65;11.93;;;16.60;69.80;;;;;;5054107;28;20444;-57
2021/05/30 08:59:20;;;;;;;17.35;10.57;;;16.70;70.60;;;;;;5068023;28;20362;-52
2021/05/30 09:01:47;;;;;;;20.23;10.52;;;16.80;69.60;;;;;;5053325;28;20443;-57
2021/05/30 09:04:14;;;;;;;18.00;11.60;;;16.80;69.70;;;;;;5064905;28;20041;-55
2021/05/30 09:06:45;;;;;;;19.08;11.75;;;16.80;70.50;;;;;;5064675;28;20054;-56
2021/05/30 09:09:12;;;;;;;16.23;11.25;;;17.00;70.40;;;;;;5053137;28;20485;-55
2021/05/30 09:11:45;;;;;;;16.48;11.23;;;17.10;69.90;;;;;;5052810;28;20128;-55
2021/05/30 09:14:18;;;;;;;16.58;11.00;;;17.20;68.50;;;;;;5051676;28;20524;-55
2021/05/30 09:16:58;;;;;;;18.63;11.10;;;17.20;68.50;;;;;;5053847;28;20098;-57
2021/05/30 09:19:30;;;;;;;19.48;10.40;;;17.30;68.10;;;;;;5058452;28;20033;-55
2021/05/30 09:22:16;;;;;;;18.52;10.48;;;17.40;67.20;;;;;;5061475;28;20045;-55
2021/05/30 09:25:05;;;;;;;14.63;10.85;;;17.50;66.90;;;;;;5051959;28;20049;-56
2021/05/30 09:27:32;;;;;;;15.85;10.93;;;17.70;68.00;;;;;;5054167;28;20382;-55
2021/05/30 09:30:24;;;;;;;15.73;9.90;;;17.70;65.20;;;;;;5052818;28;20420;-54
2021/05/30 09:32:54;;;;;;;13.60;9.65;;;17.80;66.20;;;;;;5052154;28;20041;-55
2021/05/30 09:35:28;;;;;;;15.23;10.00;;;17.80;66.00;;;;;;5052616;28;20076;-58
2021/05/30 09:38:09;;;;;;;15.55;9.63;;;17.90;66.00;;;;;;5052014;28;20041;-56
2021/05/30 09:40:35;;;;;;;15.20;9.68;;;18.00;66.40;;;;;;5042802;28;20095;-55
2021/05/30 09:43:15;;;;;;;14.57;9.70;;;18.10;66.50;;;;;;5053158;28;20516;-57
2021/05/30 09:45:55;;;;;;;15.45;10.00;;;18.20;66.60;;;;;;5051886;28;20500;-54
2021/05/30 09:48:21;;;;;;;14.57;10.02;;;18.30;65.80;;;;;;5051845;28;20429;-55
2021/05/30 09:51:12;;;;;;;15.60;9.50;;;18.50;66.00;;;;;;5025264;28;20135;-55
2021/05/30 09:53:43;;;;;;;13.70;9.90;;;18.50;65.20;;;;;;5056789;28;20033;-55
2021/05/30 09:56:30;;;;;;;14.13;9.63;;;18.60;64.70;;;;;;5063826;28;20398;-56
2021/05/30 09:58:57;;;;;;;16.05;11.07;;;18.70;64.60;;;;;;5017905;28;20292;-58
2021/05/30 10:01:27;;;;;;;14.52;10.00;;;18.70;65.30;;;;;;5052242;28;20120;-58
2021/05/30 10:03:54;;;;;;;15.93;9.43;;;18.70;65.00;;;;;;5051148;28;20098;-57
2021/05/30 10:06:20;;;;;;;14.43;10.20;;;18.80;64.10;;;;;;5051714;28;20060;-57
2021/05/30 10:08:47;;;;;;;18.35;9.23;;;18.80;63.70;;;;;;5053409;28;20041;-57
2021/05/30 10:11:17;;;;;;;15.45;9.43;;;18.80;64.10;;;;;;5052009;28;20036;-58
2021/05/30 10:13:44;;;;;;;15.40;9.45;;;18.80;63.90;;;;;;5030828;28;20055;-58
2021/05/30 10:16:10;;;;;;;16.50;10.18;;;18.90;64.00;;;;;;5051697;28;20041;-57
2021/05/30 10:18:44;;;;;;;12.82;9.90;;;18.90;64.20;;;;;;5034011;28;20029;-57
2021/05/30 10:21:16;;;;;;;13.45;9.73;;;19.00;62.60;;;;;;5065222;28;20037;-58
2021/05/30 10:23:44;;;;;;;13.40;9.82;;;19.00;62.00;;;;;;5045995;28;20041;-58
2021/05/30 10:26:21;;;;;;;12.77;9.45;;;19.00;62.80;;;;;;5063380;28;20106;-58
2021/05/30 10:28:58;;;;;;;13.73;9.00;;;19.10;62.70;;;;;;5027197;28;20040;-58
2021/05/30 10:31:27;;;;;;;12.63;8.95;;;19.10;63.00;;;;;;5065625;28;20560;-59
2021/05/30 10:34:20;;;;;;;15.35;9.25;;;19.10;63.20;;;;;;5058847;28;20412;-58
2021/05/30 10:37:11;;;;;;;13.65;8.80;;;19.30;62.80;;;;;;5051225;28;20041;-58
2021/05/30 10:39:37;;;;;;;11.40;8.02;;;19.40;62.90;;;;;;5052043;28;20042;-59
2021/05/30 10:42:18;;;;;;;12.85;8.27;;;19.60;61.50;;;;;;5071738;28;20111;-58
2021/05/30 10:44:49;;;;;;;15.35;8.35;;;19.60;61.20;;;;;;5060156;28;20041;-59
2021/05/30 10:47:16;;;;;;;15.35;8.15;;;19.70;61.30;;;;;;5051406;28;20033;-58
2021/05/30 10:50:05;;;;;;;12.20;9.00;;;19.80;61.00;;;;;;5052117;28;20049;-57
2021/05/30 10:52:40;;;;;;;14.65;8.88;;;19.90;61.90;;;;;;5028499;28;20124;-58
2021/05/30 10:55:13;;;;;;;14.65;9.05;;;19.90;61.30;;;;;;5037419;28;20072;-55
2021/05/30 10:57:47;;;;;;;14.32;8.82;;;20.00;61.70;;;;;;5058604;28;20051;-55
2021/05/30 11:00:22;;;;;;;11.27;9.20;;;20.00;62.20;;;;;;5055883;28;20051;-57
2021/05/30 11:03:06;;;;;;;13.35;8.95;;;19.90;60.30;;;;;;5057356;28;20084;-57
2021/05/30 11:05:42;;;;;;;14.32;8.60;;;20.00;60.80;;;;;;5052473;28;20110;-57
2021/05/30 11:08:28;;;;;;;11.63;8.00;;;20.10;61.80;;;;;;5051687;28;20056;-57
2021/05/30 11:11:24;;;;;;;12.90;8.75;;;20.20;61.50;;;;;;5063861;28;20105;-55
2021/05/30 11:14:01;;;;;;;12.23;8.25;;;20.20;60.30;;;;;;5030953;28;20504;-56
2021/05/30 11:16:31;;;;;;;12.25;8.07;;;20.30;60.30;;;;;;5060832;28;20049;-57
2021/05/30 11:18:57;;;;;;;11.85;7.95;;;20.40;60.90;;;;;;5050352;28;20041;-53
2021/05/30 11:21:27;;;;;;;13.75;8.63;;;20.50;59.70;;;;;;5050673;28;20512;-55
2021/05/30 11:23:54;;;;;;;10.82;8.02;;;20.60;59.90;;;;;;5050212;28;20072;-54
2021/05/30 11:26:21;;;;;;;13.68;7.97;;;20.60;60.30;;;;;;5056935;28;20151;-57
2021/05/30 11:28:50;;;;;;;11.70;8.30;;;20.70;59.90;;;;;;5025371;28;20045;-57
2021/05/30 11:31:16;;;;;;;12.00;7.50;;;20.90;59.00;;;;;;5038841;28;20404;-55
2021/05/30 11:33:55;;;;;;;12.07;7.95;;;20.90;59.30;;;;;;5053284;28;20160;-55
2021/05/30 11:36:26;;;;;;;13.65;8.55;;;20.90;59.60;;;;;;5060752;28;20079;-55
2021/05/30 11:39:16;;;;;;;12.25;8.32;;;20.90;56.90;;;;;;5054428;28;20049;-58
2021/05/30 11:41:46;;;;;;;12.07;7.50;;;20.80;58.70;;;;;;5049589;28;20413;-54
2021/05/30 11:44:17;;;;;;;9.07;6.90;;;20.90;58.60;;;;;;5056701;28;20035;-58
2021/05/30 11:46:53;;;;;;;12.52;7.10;;;20.90;58.40;;;;;;5024685;28;20459;-58
2021/05/30 11:49:23;;;;;;;10.35;7.40;;;20.90;58.30;;;;;;5056271;28;20044;-58
2021/05/30 11:51:56;;;;;;;9.45;7.38;;;21.00;58.80;;;;;;5056220;28;20130;-55
2021/05/30 11:54:23;;;;;;;12.75;8.35;;;21.10;58.60;;;;;;5059850;28;20515;-56
2021/05/30 11:56:55;;;;;;;11.40;7.20;;;21.20;57.70;;;;;;5056131;28;20048;-56
2021/05/30 11:59:34;;;;;;;;;;;21.20;58.00;;;;;;5059261;28;20032;-55
2021/05/30 12:02:01;;;;;;;11.77;7.70;;;21.20;59.50;;;;;;5044962;28;19967;-55
2021/05/30 12:04:31;;;;;;;12.30;7.68;;;21.40;57.70;;;;;;5062203;28;20045;-54
2021/05/30 12:06:58;;;;;;;13.45;7.80;;;21.40;55.80;;;;;;5053619;28;20041;-54
2021/05/30 12:09:45;;;;;;;11.75;6.97;;;21.30;55.00;;;;;;5058458;28;20485;-56
2021/05/30 12:12:42;;;;;;;10.10;7.07;;;21.20;57.30;;;;;;5060708;28;20041;-58
2021/05/30 12:15:21;;;;;;;9.45;6.50;;;21.20;57.30;;;;;;5044502;28;20048;-58
2021/05/30 12:17:51;;;;;;;12.48;7.40;;;21.30;58.60;;;;;;5059003;28;20037;-56
2021/05/30 12:20:21;;;;;;;9.50;7.07;;;21.50;57.90;;;;;;5060378;28;20037;-58
2021/05/30 12:22:49;;;;;;;11.48;7.32;;;21.50;58.10;;;;;;5055658;28;20148;-58
2021/05/30 12:25:16;;;;;;;10.45;7.07;;;21.70;58.10;;;;;;5068879;28;20044;-58
2021/05/30 12:27:42;;;;;;;10.80;6.70;;;21.70;56.60;;;;;;5061380;28;20127;-58
2021/05/30 12:30:11;;;;;;;10.25;5.68;;;21.70;56.40;;;;;;5058855;28;20087;-58
2021/05/30 12:32:37;;;;;;;9.02;6.13;;;21.70;52.40;;;;;;5053857;28;20051;-57
2021/05/30 12:35:03;;;;;;;10.27;5.80;;;21.60;52.50;;;;;;5037083;28;20418;-58
2021/05/30 12:37:43;;;;;;;11.10;6.10;;;21.50;53.90;;;;;;5054127;28;20116;-57
2021/05/30 12:40:12;;;;;;;8.43;5.47;;;21.50;53.60;;;;;;5026398;28;20064;-58
2021/05/30 12:42:39;;;;;;;9.68;5.70;;;21.60;54.10;;;;;;5049326;28;20045;-59